Time;durP1;ratioP1;P1;durP2;ratioP2;P2;SDS_P1;SDS_P2;PMS_P1;PMS_P2;Temp;Humidity;BMP_temperature;BMP_pressure;BME280_temperature;BME280_humidity;BME280_pressure;Samples;Min_cycle;Max_cycle;Signal;HPM_P1;HPM_P2
2024/03/18 00:00:01;;;;;;;7.38;2.78;;;4.20;99.90;;;;;;4997034;28;20029;-70
2024/03/18 00:02:28;;;;;;;9.60;4.00;;;4.20;99.90;;;;;;4996643;28;20033;-70
2024/03/18 00:04:56;;;;;;;9.65;3.33;;;4.20;99.90;;;;;;4990744;28;20468;-70
2024/03/18 00:07:23;;;;;;;6.50;2.50;;;4.10;99.90;;;;;;4991167;28;20049;-70
2024/03/18 00:09:49;;;;;;;9.90;3.53;;;4.10;99.90;;;;;;4991764;28;20041;-69
2024/03/18 00:12:15;;;;;;;9.32;3.50;;;4.00;99.90;;;;;;4998313;28;20539;-69
2024/03/18 00:14:43;;;;;;;8.95;3.53;;;4.00;99.90;;;;;;4997155;28;20069;-69
2024/03/18 00:17:12;;;;;;;9.35;3.85;;;3.90;99.90;;;;;;4996712;28;20030;-70
2024/03/18 00:19:38;;;;;;;8.15;3.42;;;3.90;99.90;;;;;;4997840;28;20045;-69
2024/03/18 00:22:05;;;;;;;6.85;3.88;;;3.80;99.90;;;;;;4994195;28;20049;-69
2024/03/18 00:24:32;;;;;;;8.48;4.13;;;3.80;99.90;;;;;;4997691;28;20057;-70
2024/03/18 00:26:58;;;;;;;9.18;3.35;;;3.80;99.90;;;;;;4996055;28;20022;-70
2024/03/18 00:29:24;;;;;;;11.15;3.58;;;3.70;99.90;;;;;;4994441;28;20375;-70
2024/03/18 00:31:50;;;;;;;7.82;3.08;;;3.60;99.90;;;;;;4997480;28;20033;-70
2024/03/18 00:34:16;;;;;;;7.80;3.08;;;3.60;99.90;;;;;;4994356;28;20159;-70
2024/03/18 00:36:44;;;;;;;8.98;2.95;;;3.50;99.90;;;;;;5000001;28;20029;-69
2024/03/18 00:39:11;;;;;;;7.18;3.15;;;3.50;99.90;;;;;;4992628;28;20129;-70
2024/03/18 00:41:49;;;;;;;9.13;2.83;;;3.40;99.90;;;;;;4997694;28;20027;-70
2024/03/18 00:44:22;;;;;;;6.15;2.92;;;3.40;99.90;;;;;;4994841;28;20030;-69
2024/03/18 00:46:48;;;;;;;8.80;3.55;;;3.40;99.90;;;;;;4993165;28;20133;-70
2024/03/18 00:49:14;;;;;;;10.60;3.65;;;3.40;99.90;;;;;;4994794;28;20044;-70
2024/03/18 00:51:41;;;;;;;7.95;3.22;;;3.30;99.90;;;;;;4994203;28;20028;-70
2024/03/18 00:54:09;;;;;;;9.35;3.45;;;3.30;99.90;;;;;;4994592;28;20036;-70
2024/03/18 00:56:36;;;;;;;7.55;3.67;;;3.40;99.90;;;;;;4993335;28;20026;-70
2024/03/18 00:59:03;;;;;;;9.88;3.22;;;3.30;99.90;;;;;;4997172;28;20041;-70
2024/03/18 01:01:30;;;;;;;6.85;3.55;;;3.40;99.90;;;;;;4997725;28;20517;-69
2024/03/18 01:03:56;;;;;;;10.13;2.88;;;3.50;99.90;;;;;;4999574;28;20549;-69
2024/03/18 01:06:24;;;;;;;7.80;3.30;;;3.40;99.90;;;;;;4992159;28;20377;-69
2024/03/18 01:08:51;;;;;;;5.95;2.85;;;3.50;99.90;;;;;;4995089;28;20457;-70
2024/03/18 01:11:17;;;;;;;6.45;2.92;;;3.40;99.90;;;;;;4997672;28;20026;-69
2024/03/18 01:13:47;;;;;;;7.30;3.00;;;3.40;99.90;;;;;;4993731;28;20447;-70
2024/03/18 01:16:14;;;;;;;8.20;3.17;;;3.30;99.90;;;;;;4996736;28;20022;-70
2024/03/18 01:18:40;;;;;;;8.77;2.53;;;3.30;99.90;;;;;;4999684;28;20045;-69
2024/03/18 01:21:06;;;;;;;12.32;3.47;;;3.30;99.90;;;;;;4993495;28;20034;-70
2024/03/18 01:23:32;;;;;;;9.60;3.22;;;3.20;99.90;;;;;;4992121;28;20032;-70
2024/03/18 01:25:58;;;;;;;8.30;3.20;;;3.30;99.90;;;;;;4994403;28;20835;-70
2024/03/18 01:28:23;;;;;;;7.68;2.65;;;3.10;99.90;;;;;;4995488;28;20584;-70
2024/03/18 01:30:49;;;;;;;8.98;2.60;;;3.00;99.90;;;;;;4989487;28;20629;-70
2024/03/18 01:33:15;;;;;;;6.72;2.97;;;3.00;99.90;;;;;;4993703;28;20031;-70
2024/03/18 01:35:41;;;;;;;11.88;3.40;;;3.00;99.90;;;;;;4998826;28;20802;-69
2024/03/18 01:38:06;;;;;;;5.75;2.70;;;3.00;99.90;;;;;;5004873;28;20037;-70
2024/03/18 01:40:33;;;;;;;9.20;3.63;;;2.90;99.90;;;;;;4992403;28;20037;-70
2024/03/18 01:42:58;;;;;;;8.25;2.97;;;2.90;99.90;;;;;;4991727;28;20069;-70
2024/03/18 01:45:25;;;;;;;4.88;2.53;;;2.90;99.90;;;;;;4991752;28;20116;-70
2024/03/18 01:47:51;;;;;;;6.97;3.28;;;2.90;99.90;;;;;;4996120;28;20660;-70
2024/03/18 01:50:18;;;;;;;6.72;2.30;;;2.80;99.90;;;;;;4996152;28;20503;-70
2024/03/18 01:52:45;;;;;;;6.88;2.40;;;2.70;99.90;;;;;;4996295;28;20040;-69
2024/03/18 01:55:14;;;;;;;5.43;2.25;;;2.80;99.90;;;;;;4998177;28;20022;-70
2024/03/18 01:57:41;;;;;;;7.18;2.70;;;2.90;99.90;;;;;;4996526;28;20035;-70
2024/03/18 02:00:15;;;;;;;5.18;2.42;;;2.90;99.90;;;;;;5001448;28;20026;-70
2024/03/18 02:02:44;;;;;;;6.43;2.28;;;2.90;99.90;;;;;;4998901;28;20045;-70
2024/03/18 02:05:10;;;;;;;8.43;2.20;;;3.00;99.90;;;;;;4992973;28;20026;-70
2024/03/18 02:07:37;;;;;;;5.65;2.30;;;2.90;99.90;;;;;;4994840;28;20080;-69
2024/03/18 02:10:05;;;;;;;3.85;1.90;;;2.90;99.90;;;;;;4995364;28;20053;-70
2024/03/18 02:12:32;;;;;;;4.72;2.10;;;2.80;99.90;;;;;;5001029;28;20030;-70
2024/03/18 02:14:59;;;;;;;3.38;1.80;;;2.80;99.90;;;;;;4997488;28;20508;-69
2024/03/18 02:17:25;;;;;;;8.85;2.28;;;2.70;99.90;;;;;;4992397;28;20027;-69
2024/03/18 02:19:51;;;;;;;5.60;2.05;;;2.70;99.90;;;;;;4999911;28;20429;-69
2024/03/18 02:22:17;;;;;;;4.80;2.33;;;2.70;99.90;;;;;;4994995;28;20117;-69
2024/03/18 02:24:42;;;;;;;4.40;2.20;;;2.70;99.90;;;;;;4991452;28;20092;-69
2024/03/18 02:27:10;;;;;;;6.05;2.20;;;2.60;99.90;;;;;;4993879;28;20113;-69
2024/03/18 02:29:36;;;;;;;6.05;2.67;;;2.60;99.90;;;;;;4995242;28;20494;-70
2024/03/18 02:32:03;;;;;;;4.95;2.60;;;2.60;99.90;;;;;;4998174;28;20030;-69
2024/03/18 02:34:30;;;;;;;6.50;2.58;;;2.60;99.90;;;;;;4992307;28;20788;-69
2024/03/18 02:36:57;;;;;;;5.05;2.08;;;2.60;99.90;;;;;;4999202;28;20084;-69
2024/03/18 02:39:24;;;;;;;5.60;2.13;;;2.60;99.90;;;;;;4993208;28;20026;-70
2024/03/18 02:41:56;;;;;;;6.75;2.20;;;2.50;99.90;;;;;;4996829;28;20026;-70
2024/03/18 02:44:22;;;;;;;8.05;2.13;;;2.50;99.90;;;;;;4999412;28;20529;-70
2024/03/18 02:46:48;;;;;;;6.97;2.47;;;2.50;99.90;;;;;;4995767;28;20041;-69
2024/03/18 02:49:15;;;;;;;5.80;2.58;;;2.50;99.90;;;;;;4996585;28;20690;-69
2024/03/18 02:51:41;;;;;;;6.47;2.70;;;2.50;99.90;;;;;;4993613;28;20452;-69
2024/03/18 02:54:07;;;;;;;6.30;2.83;;;2.40;99.90;;;;;;4995176;28;20032;-69
2024/03/18 02:56:33;;;;;;;7.13;2.22;;;2.40;99.90;;;;;;4999482;28;20026;-69
2024/03/18 02:58:59;;;;;;;5.45;2.28;;;2.40;99.90;;;;;;4992461;28;20026;-69
2024/03/18 03:01:26;;;;;;;5.90;2.63;;;2.30;99.90;;;;;;4995283;28;20113;-69
2024/03/18 03:03:54;;;;;;;5.53;1.90;;;2.30;99.90;;;;;;4995989;28;20033;-69
2024/03/18 03:06:20;;;;;;;4.20;2.08;;;2.30;99.90;;;;;;4993689;28;20110;-69
2024/03/18 03:08:48;;;;;;;4.32;1.92;;;2.30;99.90;;;;;;4994326;28;20112;-69
2024/03/18 03:11:15;;;;;;;7.38;2.40;;;2.20;99.90;;;;;;4995705;28;20026;-69
2024/03/18 03:13:41;;;;;;;6.45;2.65;;;2.20;99.90;;;;;;4993023;28;20038;-69
2024/03/18 03:16:10;;;;;;;5.05;2.53;;;2.20;99.90;;;;;;4995676;28;20048;-69
2024/03/18 03:18:36;;;;;;;4.03;2.35;;;2.20;99.90;;;;;;4995084;28;20041;-69
2024/03/18 03:21:05;;;;;;;5.97;2.60;;;2.20;99.90;;;;;;4997833;28;20034;-70
2024/03/18 03:23:35;;;;;;;3.15;2.17;;;2.20;99.90;;;;;;4995238;28;20029;-69
2024/03/18 03:26:01;;;;;;;4.70;1.98;;;2.20;99.90;;;;;;4996604;28;20394;-69
2024/03/18 03:28:28;;;;;;;6.28;2.35;;;2.10;99.90;;;;;;4994360;28;20029;-69
2024/03/18 03:31:10;;;;;;;6.65;2.20;;;2.10;99.90;;;;;;4993730;28;20038;-69
2024/03/18 03:33:38;;;;;;;4.20;1.88;;;2.10;99.90;;;;;;4994170;28;20026;-69
2024/03/18 03:36:05;;;;;;;7.72;2.20;;;2.00;99.90;;;;;;4996239;28;20043;-69
2024/03/18 03:38:30;;;;;;;6.35;2.50;;;2.00;99.90;;;;;;4992650;28;20414;-69
2024/03/18 03:40:56;;;;;;;4.50;2.05;;;2.00;99.90;;;;;;4998018;28;20030;-70
2024/03/18 03:43:23;;;;;;;5.90;2.75;;;2.00;99.90;;;;;;4999733;28;20083;-69
2024/03/18 03:45:57;;;;;;;5.57;2.35;;;2.00;99.90;;;;;;4994909;28;20034;-69
2024/03/18 03:48:27;;;;;;;4.57;1.90;;;2.00;99.90;;;;;;4989268;28;20041;-70
2024/03/18 03:50:54;;;;;;;4.10;2.30;;;2.00;99.90;;;;;;4992670;28;20121;-69
2024/03/18 03:53:22;;;;;;;5.35;2.40;;;2.00;99.90;;;;;;4995817;28;20033;-70
2024/03/18 03:55:52;;;;;;;7.10;1.90;;;2.00;99.90;;;;;;4994547;28;20022;-69
2024/03/18 03:58:18;;;;;;;3.75;1.58;;;2.00;99.90;;;;;;4990968;28;20047;-69
2024/03/18 04:00:45;;;;;;;4.18;1.88;;;2.00;99.90;;;;;;4991191;28;20076;-69
2024/03/18 04:03:18;;;;;;;3.72;2.05;;;2.00;99.90;;;;;;4991385;28;20022;-69
2024/03/18 04:05:45;;;;;;;4.32;2.10;;;2.00;99.90;;;;;;4989594;28;20042;-69
2024/03/18 04:08:11;;;;;;;5.72;2.30;;;2.00;99.90;;;;;;4991134;28;20037;-69
2024/03/18 04:10:37;;;;;;;4.80;1.85;;;2.00;99.90;;;;;;4994695;28;20068;-69
2024/03/18 04:13:03;;;;;;;5.60;2.55;;;2.00;99.90;;;;;;4993409;28;20034;-69
2024/03/18 04:15:29;;;;;;;4.07;2.25;;;2.00;99.90;;;;;;4995072;28;20029;-69
2024/03/18 04:17:55;;;;;;;5.05;1.90;;;2.00;99.90;;;;;;4991505;28;20034;-69
2024/03/18 04:20:21;;;;;;;3.90;1.98;;;1.90;99.90;;;;;;4996996;28;20034;-69
2024/03/18 04:22:50;;;;;;;5.78;2.75;;;1.90;99.90;;;;;;4994993;28;20480;-69
2024/03/18 04:25:17;;;;;;;5.35;2.28;;;1.90;99.90;;;;;;4992033;28;20377;-69
2024/03/18 04:27:43;;;;;;;5.22;1.80;;;1.90;99.90;;;;;;4995629;28;20022;-70
2024/03/18 04:30:20;;;;;;;4.05;1.88;;;1.90;99.90;;;;;;4998131;28;20528;-70
2024/03/18 04:32:48;;;;;;;;;;;1.90;99.90;;;;;;4994810;28;20022;-69
2024/03/18 04:35:14;;;;;;;5.65;2.05;;;1.90;99.90;;;;;;4990822;28;20474;-69
2024/03/18 04:37:46;;;;;;;4.72;2.25;;;1.90;99.90;;;;;;4989340;28;20037;-69
2024/03/18 04:40:23;;;;;;;3.42;2.10;;;1.90;99.90;;;;;;4992884;28;20115;-69
2024/03/18 04:42:49;;;;;;;5.30;1.95;;;1.90;99.90;;;;;;4992699;28;20100;-69
2024/03/18 04:45:17;;;;;;;4.30;1.90;;;1.90;99.90;;;;;;4994134;28;20040;-69
2024/03/18 04:47:53;;;;;;;4.90;2.53;;;1.80;99.90;;;;;;4995927;28;20026;-68
2024/03/18 04:50:21;;;;;;;4.05;2.38;;;1.80;99.90;;;;;;4993258;28;20030;-69
2024/03/18 04:52:48;;;;;;;4.53;2.10;;;1.80;99.90;;;;;;4999917;28;20133;-68
2024/03/18 04:55:15;;;;;;;4.70;2.08;;;1.80;99.90;;;;;;4994219;28;20062;-68
2024/03/18 04:57:41;;;;;;;4.93;2.28;;;1.70;99.90;;;;;;4995928;28;20671;-69
2024/03/18 05:00:11;;;;;;;4.97;2.22;;;1.70;99.90;;;;;;5000975;28;20041;-69
2024/03/18 05:02:40;;;;;;;4.95;2.15;;;1.70;99.90;;;;;;4995606;28;20034;-69
2024/03/18 05:05:13;;;;;;;3.17;1.85;;;1.70;99.90;;;;;;4991671;28;20062;-69
2024/03/18 05:07:42;;;;;;;5.25;2.50;;;1.70;99.90;;;;;;4991997;28;20041;-68
2024/03/18 05:10:10;;;;;;;4.43;2.28;;;1.70;99.90;;;;;;4994798;28;20030;-69
2024/03/18 05:12:36;;;;;;;3.83;2.33;;;1.70;99.90;;;;;;4993651;28;20034;-68
2024/03/18 05:15:03;;;;;;;5.88;2.30;;;1.70;99.90;;;;;;4994858;28;20025;-69
2024/03/18 05:17:29;;;;;;;4.72;2.60;;;1.60;99.90;;;;;;4994786;28;20084;-69
2024/03/18 05:19:57;;;;;;;4.35;2.17;;;1.70;99.90;;;;;;5014754;28;20033;-69
2024/03/18 05:22:23;;;;;;;3.85;2.05;;;1.70;99.90;;;;;;4997662;28;20937;-68
2024/03/18 05:24:49;;;;;;;4.55;2.38;;;1.60;99.90;;;;;;4996907;28;20034;-69
2024/03/18 05:27:18;;;;;;;3.17;1.83;;;1.60;99.90;;;;;;5001101;28;20045;-68
2024/03/18 05:29:44;;;;;;;3.58;1.77;;;1.50;99.90;;;;;;4999601;28;20486;-69
2024/03/18 05:32:15;;;;;;;3.47;1.80;;;1.50;99.90;;;;;;4994284;28;20032;-69
2024/03/18 05:34:42;;;;;;;4.35;2.03;;;1.60;99.90;;;;;;5003884;28;20100;-69
2024/03/18 05:37:09;;;;;;;5.68;2.63;;;1.60;99.90;;;;;;5000594;28;20034;-68
2024/03/18 05:39:36;;;;;;;3.65;1.65;;;1.70;99.90;;;;;;4997108;28;20073;-69
2024/03/18 05:42:03;;;;;;;2.88;2.03;;;1.80;99.90;;;;;;5002018;28;20041;-68
2024/03/18 05:44:28;;;;;;;5.57;2.35;;;1.90;99.90;;;;;;4995771;28;20061;-68
2024/03/18 05:46:54;;;;;;;6.07;2.13;;;2.00;99.90;;;;;;4995263;28;20042;-69
2024/03/18 05:49:20;;;;;;;3.47;2.03;;;2.20;99.90;;;;;;4993911;28;20526;-69
2024/03/18 05:51:48;;;;;;;4.03;2.10;;;2.30;99.90;;;;;;4997791;28;20056;-69
2024/03/18 05:54:15;;;;;;;3.25;1.75;;;2.40;99.90;;;;;;4995345;28;20021;-68
2024/03/18 05:56:42;;;;;;;5.70;2.90;;;2.50;99.90;;;;;;4996311;28;20026;-68
2024/03/18 05:59:10;;;;;;;4.40;2.40;;;2.50;99.90;;;;;;5002423;28;20029;-69
2024/03/18 06:01:37;;;;;;;3.70;2.30;;;2.70;99.90;;;;;;4997244;28;20027;-69
2024/03/18 06:04:04;;;;;;;3.40;1.63;;;2.80;99.90;;;;;;4995172;28;21159;-69
2024/03/18 06:06:30;;;;;;;5.28;2.20;;;2.80;99.90;;;;;;4997931;28;20030;-69
2024/03/18 06:08:56;;;;;;;3.08;2.20;;;2.80;99.90;;;;;;5000474;28;20058;-68
2024/03/18 06:11:22;;;;;;;3.90;1.90;;;2.80;99.90;;;;;;4995448;28;20139;-69
2024/03/18 06:13:47;;;;;;;3.38;1.75;;;2.70;99.90;;;;;;4999230;28;20786;-69
2024/03/18 06:16:14;;;;;;;6.65;1.77;;;2.80;99.90;;;;;;4992934;28;20029;-69
2024/03/18 06:18:42;;;;;;;3.15;1.73;;;2.70;99.90;;;;;;5000319;28;20057;-69
2024/03/18 06:21:16;;;;;;;3.05;1.75;;;2.60;99.90;;;;;;4994566;28;20048;-69
2024/03/18 06:23:50;;;;;;;2.65;1.70;;;2.60;99.90;;;;;;4994190;28;20034;-69
2024/03/18 06:26:17;;;;;;;7.10;2.00;;;2.60;99.90;;;;;;4997765;28;20033;-69
2024/03/18 06:28:43;;;;;;;6.82;1.77;;;2.60;99.90;;;;;;4997093;28;20026;-69
2024/03/18 06:31:11;;;;;;;3.10;1.50;;;2.70;99.90;;;;;;4996909;28;20713;-69
2024/03/18 06:33:37;;;;;;;4.78;1.77;;;2.80;99.90;;;;;;4997378;28;20025;-69
2024/03/18 06:36:09;;;;;;;6.00;1.88;;;2.80;99.90;;;;;;4997786;28;20030;-69
2024/03/18 06:38:36;;;;;;;3.03;1.77;;;3.00;99.90;;;;;;4995666;28;20038;-69
2024/03/18 06:41:02;;;;;;;3.10;1.83;;;3.00;99.90;;;;;;5000298;28;20160;-69
2024/03/18 06:43:27;;;;;;;4.05;2.03;;;3.10;99.90;;;;;;4995772;28;20033;-68
2024/03/18 06:45:53;;;;;;;4.53;1.80;;;3.10;99.90;;;;;;4993566;28;20034;-68
2024/03/18 06:48:19;;;;;;;4.13;1.70;;;3.30;99.90;;;;;;4998780;28;20060;-69
2024/03/18 06:50:45;;;;;;;4.65;1.75;;;3.40;99.90;;;;;;4995341;28;20026;-69
2024/03/18 06:53:11;;;;;;;2.35;1.70;;;3.50;99.90;;;;;;4993430;28;20052;-69
2024/03/18 06:55:40;;;;;;;2.72;1.27;;;3.50;99.90;;;;;;4997230;28;20032;-69
2024/03/18 06:58:06;;;;;;;5.20;1.50;;;3.60;99.90;;;;;;4988582;28;20034;-69
2024/03/18 07:00:32;;;;;;;2.53;1.30;;;3.40;99.90;;;;;;4997178;28;20053;-69
2024/03/18 07:02:58;;;;;;;2.72;1.92;;;3.40;99.90;;;;;;5000838;28;20095;-68
2024/03/18 07:05:25;;;;;;;4.03;1.73;;;3.60;99.90;;;;;;4993917;28;20136;-68
2024/03/18 07:07:51;;;;;;;2.15;1.27;;;3.90;99.90;;;;;;4996269;28;20026;-69
2024/03/18 07:10:18;;;;;;;3.55;1.38;;;3.90;99.90;;;;;;4999510;28;20025;-69
2024/03/18 07:12:46;;;;;;;3.15;1.40;;;4.00;99.90;;;;;;4992814;28;20044;-68
2024/03/18 07:15:13;;;;;;;3.13;1.60;;;4.10;99.90;;;;;;4991245;28;20044;-69
2024/03/18 07:17:40;;;;;;;2.20;1.30;;;4.00;99.90;;;;;;4994660;28;20072;-67
2024/03/18 07:20:07;;;;;;;6.20;1.98;;;4.10;99.90;;;;;;4994949;28;20111;-68
2024/03/18 07:22:34;;;;;;;3.65;1.50;;;4.20;99.90;;;;;;4995765;28;20030;-67
2024/03/18 07:24:59;;;;;;;2.53;1.40;;;4.30;99.90;;;;;;4984571;28;20064;-63
2024/03/18 07:27:27;;;;;;;3.28;1.70;;;4.60;99.90;;;;;;4998910;28;20510;-66
2024/03/18 07:30:00;;;;;;;2.05;1.13;;;5.10;99.80;;;;;;4997891;28;20022;-63
2024/03/18 07:32:26;;;;;;;3.13;1.70;;;5.40;99.10;;;;;;4992015;28;20113;-63
2024/03/18 07:34:52;;;;;;;3.95;1.40;;;5.90;98.30;;;;;;5000494;28;20476;-63
2024/03/18 07:37:19;;;;;;;2.25;1.70;;;6.00;96.80;;;;;;4995777;28;20038;-63
2024/03/18 07:39:45;;;;;;;1.90;1.05;;;6.50;96.20;;;;;;4993816;28;20037;-64
2024/03/18 07:42:12;;;;;;;1.83;1.20;;;6.90;94.90;;;;;;4989185;28;20050;-64
2024/03/18 07:44:41;;;;;;;4.25;1.20;;;7.30;94.00;;;;;;4986555;28;20447;-64
2024/03/18 07:47:08;;;;;;;2.50;2.30;;;7.50;93.40;;;;;;4995946;28;20025;-64
2024/03/18 07:49:40;;;;;;;4.03;1.50;;;7.70;92.60;;;;;;4996039;28;20136;-64
2024/03/18 07:52:06;;;;;;;1.55;1.15;;;8.00;92.20;;;;;;4992588;28;20573;-64
2024/03/18 07:54:33;;;;;;;2.75;1.25;;;8.30;91.30;;;;;;4993817;28;20030;-64
2024/03/18 07:56:59;;;;;;;1.98;1.20;;;8.10;89.90;;;;;;4999673;28;20029;-64
2024/03/18 07:59:25;;;;;;;3.90;1.20;;;8.00;89.30;;;;;;4999237;28;20445;-64
2024/03/18 08:01:51;;;;;;;2.72;0.85;;;7.90;89.40;;;;;;4992177;28;20034;-65
2024/03/18 08:04:18;;;;;;;1.92;1.10;;;7.90;89.30;;;;;;4996474;28;20034;-64
2024/03/18 08:06:47;;;;;;;2.15;0.90;;;7.70;88.50;;;;;;4995921;28;20036;-64
2024/03/18 08:09:14;;;;;;;2.38;1.20;;;7.70;89.20;;;;;;4996288;28;20405;-65
2024/03/18 08:11:41;;;;;;;1.85;1.17;;;7.80;88.90;;;;;;4988272;28;20513;-64
2024/03/18 08:14:08;;;;;;;2.55;1.15;;;8.00;89.50;;;;;;4993484;28;20033;-65
2024/03/18 08:16:34;;;;;;;2.45;1.17;;;8.00;87.60;;;;;;4991972;28;20520;-67
2024/03/18 08:19:00;;;;;;;2.78;1.10;;;8.00;87.60;;;;;;4996914;28;20030;-65
2024/03/18 08:21:26;;;;;;;1.80;1.15;;;7.80;86.80;;;;;;4997030;28;20037;-64
2024/03/18 08:23:52;;;;;;;2.45;1.10;;;7.80;88.30;;;;;;4990665;28;20031;-64
2024/03/18 08:26:17;;;;;;;3.05;1.02;;;7.60;89.20;;;;;;4995910;28;20049;-65
2024/03/18 08:28:43;;;;;;;1.52;1.10;;;7.50;87.10;;;;;;4993719;28;20021;-65
2024/03/18 08:31:10;;;;;;;1.17;1.08;;;7.40;88.60;;;;;;4998668;28;20117;-65
2024/03/18 08:33:37;;;;;;;2.78;0.80;;;7.50;88.80;;;;;;4991556;28;20034;-65
2024/03/18 08:36:04;;;;;;;0.82;0.60;;;7.40;87.60;;;;;;4988697;28;20037;-65
2024/03/18 08:38:30;;;;;;;1.15;0.80;;;7.60;88.20;;;;;;4998805;28;20033;-65
2024/03/18 08:40:57;;;;;;;2.05;1.00;;;7.80;87.60;;;;;;4992535;28;20076;-65
2024/03/18 08:43:26;;;;;;;2.15;1.13;;;7.90;86.20;;;;;;5008435;28;20402;-64
2024/03/18 08:45:52;;;;;;;1.92;0.70;;;7.80;84.00;;;;;;4993355;28;20030;-64
2024/03/18 08:48:18;;;;;;;4.47;0.70;;;7.80;83.70;;;;;;5005686;28;20155;-65
2024/03/18 08:50:45;;;;;;;2.60;1.42;;;8.00;84.00;;;;;;4990408;28;20069;-66
2024/03/18 08:53:14;;;;;;;2.78;0.75;;;8.10;82.00;;;;;;4993285;28;20069;-66
2024/03/18 08:55:41;;;;;;;1.88;0.85;;;8.00;82.10;;;;;;4996489;28;20179;-66
2024/03/18 08:58:07;;;;;;;3.95;0.90;;;8.00;82.30;;;;;;4992668;28;20034;-65
2024/03/18 09:00:33;;;;;;;1.13;0.80;;;8.00;82.20;;;;;;5001682;28;20065;-66
2024/03/18 09:02:59;;;;;;;1.27;0.88;;;8.40;82.90;;;;;;5004956;28;20145;-66
2024/03/18 09:05:25;;;;;;;2.25;0.60;;;8.90;79.80;;;;;;4999519;28;20450;-66
2024/03/18 09:07:51;;;;;;;1.13;0.63;;;9.40;80.60;;;;;;5000184;28;20397;-66
2024/03/18 09:10:17;;;;;;;1.35;0.80;;;9.70;77.00;;;;;;4994805;28;20031;-66
2024/03/18 09:12:43;;;;;;;1.48;1.00;;;10.10;75.20;;;;;;4998555;28;20030;-66
2024/03/18 09:15:10;;;;;;;1.88;0.60;;;10.50;73.20;;;;;;4996176;28;20041;-66
2024/03/18 09:17:36;;;;;;;1.35;0.77;;;10.60;72.40;;;;;;5003572;28;20079;-65
2024/03/18 09:20:04;;;;;;;3.42;0.80;;;10.60;70.90;;;;;;4998655;28;20675;-66
2024/03/18 09:22:30;;;;;;;0.75;0.50;;;11.00;70.40;;;;;;4997051;28;20062;-66
2024/03/18 09:24:56;;;;;;;0.75;0.50;;;11.20;69.20;;;;;;4996082;28;20091;-67
2024/03/18 09:27:22;;;;;;;1.10;0.75;;;11.30;68.80;;;;;;4996281;28;20450;-67
2024/03/18 09:29:49;;;;;;;2.03;0.75;;;11.20;67.50;;;;;;4994880;28;20065;-67
2024/03/18 09:32:15;;;;;;;1.85;1.15;;;11.10;66.30;;;;;;4997169;28;20060;-66
2024/03/18 09:34:42;;;;;;;0.47;0.30;;;11.10;67.40;;;;;;5000690;28;20497;-70
2024/03/18 09:37:08;;;;;;;1.38;0.80;;;10.80;65.80;;;;;;5000550;28;20030;-68
2024/03/18 09:39:36;;;;;;;1.20;0.63;;;10.40;66.80;;;;;;4998679;28;20417;-68
2024/03/18 09:42:02;;;;;;;0.80;0.60;;;10.00;68.50;;;;;;4987690;28;20069;-69
2024/03/18 09:44:29;;;;;;;0.65;0.57;;;9.80;71.40;;;;;;4996541;28;20034;-70
2024/03/18 09:46:55;;;;;;;6.28;0.82;;;9.60;71.10;;;;;;4993707;28;20124;-70
2024/03/18 09:49:25;;;;;;;1.63;0.65;;;9.70;68.80;;;;;;4993060;28;20046;-70
2024/03/18 09:51:52;;;;;;;1.02;0.57;;;9.90;68.60;;;;;;4995022;28;20092;-70
2024/03/18 09:54:20;;;;;;;1.27;0.65;;;10.00;68.40;;;;;;5000668;28;20037;-70
2024/03/18 09:56:57;;;;;;;2.03;0.50;;;10.00;69.00;;;;;;4998744;28;20022;-69
2024/03/18 09:59:23;;;;;;;1.35;0.75;;;9.90;68.80;;;;;;4994845;28;20041;-69
2024/03/18 10:01:49;;;;;;;1.92;0.50;;;10.00;67.40;;;;;;4996944;28;20022;-69
2024/03/18 10:04:14;;;;;;;0.88;0.50;;;10.10;66.60;;;;;;4998829;28;20421;-69
2024/03/18 10:06:40;;;;;;;1.10;0.82;;;10.40;67.40;;;;;;5010549;28;20026;-69
2024/03/18 10:09:06;;;;;;;1.10;0.60;;;10.80;68.10;;;;;;4997292;28;20038;-69
2024/03/18 10:11:33;;;;;;;5.22;0.60;;;11.20;67.90;;;;;;4997668;28;20026;-69
2024/03/18 10:13:59;;;;;;;1.17;0.70;;;11.20;64.60;;;;;;4995208;28;20030;-68
2024/03/18 10:16:25;;;;;;;0.82;0.60;;;11.30;64.00;;;;;;4994328;28;20049;-69
2024/03/18 10:18:51;;;;;;;1.60;0.63;;;11.20;63.40;;;;;;4990598;28;20402;-69
2024/03/18 10:21:17;;;;;;;0.90;0.80;;;11.50;62.40;;;;;;4997702;28;20080;-69
2024/03/18 10:23:47;;;;;;;1.73;0.85;;;11.80;62.70;;;;;;4999384;28;20529;-69
2024/03/18 10:26:18;;;;;;;0.82;0.50;;;12.10;60.50;;;;;;5004206;28;20030;-70
2024/03/18 10:28:45;;;;;;;0.80;0.70;;;12.60;61.60;;;;;;5001030;28;20080;-71
2024/03/18 10:31:15;;;;;;;1.30;0.68;;;12.80;58.90;;;;;;4994289;28;20026;-71
2024/03/18 10:33:45;;;;;;;0.77;0.60;;;13.20;57.50;;;;;;4991184;28;20105;-71
2024/03/18 10:36:18;;;;;;;2.47;0.70;;;13.40;57.00;;;;;;5000597;28;20493;-71
2024/03/18 10:38:58;;;;;;;0.98;0.57;;;14.10;55.80;;;;;;4996867;28;20034;-72
2024/03/18 10:41:25;;;;;;;1.52;0.80;;;14.60;54.30;;;;;;4997333;28;20045;-70
2024/03/18 10:43:55;;;;;;;1.98;1.00;;;14.90;53.30;;;;;;4995820;28;20092;-70
2024/03/18 10:46:20;;;;;;;1.27;0.60;;;15.80;53.60;;;;;;4997037;28;20112;-71
2024/03/18 10:48:48;;;;;;;3.20;0.57;;;16.40;50.70;;;;;;4998295;28;20120;-70
2024/03/18 10:51:14;;;;;;;3.70;0.70;;;16.70;48.90;;;;;;4989439;28;20038;-71
2024/03/18 10:53:42;;;;;;;0.88;0.57;;;16.90;48.30;;;;;;4992812;28;20083;-71
2024/03/18 10:56:08;;;;;;;1.83;0.77;;;16.20;48.00;;;;;;5003364;28;20033;-70
2024/03/18 10:58:36;;;;;;;1.38;0.63;;;15.60;48.90;;;;;;4994182;28;20046;-70
2024/03/18 11:01:02;;;;;;;1.67;0.70;;;16.00;50.20;;;;;;4995308;28;20067;-74
2024/03/18 11:03:28;;;;;;;1.67;1.02;;;16.30;48.90;;;;;;4993502;28;20117;-70
2024/03/18 11:05:55;;;;;;;1.60;0.90;;;16.50;46.70;;;;;;4994109;28;20150;-70
2024/03/18 11:08:23;;;;;;;0.95;0.50;;;16.80;46.20;;;;;;4997073;28;20113;-70
2024/03/18 11:10:54;;;;;;;0.52;0.40;;;16.70;45.60;;;;;;4995151;28;20026;-70
2024/03/18 11:13:30;;;;;;;1.13;0.63;;;16.90;45.60;;;;;;4991161;28;20029;-70
2024/03/18 11:15:57;;;;;;;2.28;0.80;;;16.70;45.50;;;;;;4996963;28;20030;-69
2024/03/18 11:18:27;;;;;;;0.60;0.60;;;16.70;45.10;;;;;;4993355;28;20498;-70
2024/03/18 11:21:02;;;;;;;2.33;0.80;;;15.90;46.40;;;;;;4999540;28;20046;-71
2024/03/18 11:23:30;;;;;;;0.93;0.40;;;14.50;48.30;;;;;;4994375;28;20042;-72
2024/03/18 11:26:10;;;;;;;0.80;0.55;;;13.10;51.40;;;;;;4992972;28;20702;-70
2024/03/18 11:28:38;;;;;;;0.77;0.50;;;12.40;53.00;;;;;;4996795;28;20595;-70
2024/03/18 11:31:06;;;;;;;1.15;0.55;;;11.80;55.10;;;;;;4994900;28;20142;-69
2024/03/18 11:33:38;;;;;;;2.22;0.57;;;11.40;55.40;;;;;;4994415;28;20030;-70
2024/03/18 11:36:09;;;;;;;0.93;0.50;;;11.30;57.10;;;;;;4999124;28;20677;-70
2024/03/18 11:38:36;;;;;;;0.63;0.50;;;11.00;57.50;;;;;;4989844;28;20034;-70
2024/03/18 11:41:08;;;;;;;1.75;0.60;;;11.00;58.70;;;;;;5101768;27;20438;-70
2024/03/18 11:43:36;;;;;;;1.48;1.00;;;10.60;56.60;;;;;;5100904;28;20028;-68
2024/03/18 11:46:05;;;;;;;0.85;0.40;;;10.40;57.00;;;;;;5101058;28;20139;-69
2024/03/18 11:48:31;;;;;;;0.63;0.50;;;10.20;57.30;;;;;;5100916;28;20070;-68
2024/03/18 11:50:57;;;;;;;0.60;0.57;;;10.30;59.10;;;;;;5101223;28;20043;-69
2024/03/18 11:53:24;;;;;;;1.63;0.63;;;10.40;59.30;;;;;;5101052;27;20509;-69
2024/03/18 11:55:54;;;;;;;1.10;0.50;;;10.50;57.50;;;;;;5099145;28;20040;-69
2024/03/18 11:58:21;;;;;;;2.38;0.60;;;10.50;57.30;;;;;;5100301;28;20028;-66
2024/03/18 12:00:48;;;;;;;0.80;0.43;;;10.60;56.40;;;;;;5102251;28;20096;-69
2024/03/18 12:03:14;;;;;;;0.45;0.40;;;10.60;56.60;;;;;;5099414;28;20031;-71
2024/03/18 12:05:42;;;;;;;1.85;0.50;;;10.70;57.00;;;;;;5099873;28;20081;-70
2024/03/18 12:08:24;;;;;;;2.20;0.60;;;10.60;56.70;;;;;;5099254;28;20028;-70
2024/03/18 12:10:55;;;;;;;2.45;0.65;;;10.60;55.70;;;;;;5091789;28;20027;-71
2024/03/18 12:13:25;;;;;;;2.60;0.60;;;10.60;54.60;;;;;;5100230;28;20665;-70
2024/03/18 12:15:52;;;;;;;1.20;0.55;;;10.60;54.30;;;;;;5099263;28;20918;-71
2024/03/18 12:18:18;;;;;;;1.25;0.47;;;10.60;55.40;;;;;;5098008;28;20081;-71
2024/03/18 12:20:52;;;;;;;1.23;0.50;;;10.30;55.10;;;;;;5097583;28;20480;-70
2024/03/18 12:28:50;;;;;;;0.88;0.65;;;10.60;56.30;;;;;;5097226;28;20471;-70
2024/03/18 12:31:23;;;;;;;0.90;0.60;;;10.80;55.40;;;;;;5097485;28;20572;-70
2024/03/18 12:33:49;;;;;;;1.45;0.55;;;10.90;56.30;;;;;;5102031;28;20466;-70
2024/03/18 12:36:17;;;;;;;0.45;0.40;;;11.00;56.60;;;;;;5098222;28;20882;-70
2024/03/18 12:38:47;;;;;;;2.67;0.55;;;11.00;56.50;;;;;;5097122;28;20031;-70
2024/03/18 12:41:16;;;;;;;1.58;0.60;;;10.90;55.50;;;;;;5101149;28;20038;-70
2024/03/18 12:43:42;;;;;;;1.55;0.77;;;10.90;55.00;;;;;;5102402;28;20059;-70
2024/03/18 12:46:11;;;;;;;2.53;0.95;;;10.90;55.70;;;;;;5098288;28;20032;-70
2024/03/18 12:48:37;;;;;;;1.77;0.70;;;11.00;55.60;;;;;;5098909;28;20418;-70
2024/03/18 12:51:03;;;;;;;1.92;0.60;;;11.20;54.90;;;;;;5093624;28;20044;-70
2024/03/18 12:53:29;;;;;;;1.30;0.57;;;11.40;54.70;;;;;;5085634;28;20023;-70
2024/03/18 12:55:55;;;;;;;1.63;0.45;;;11.40;54.50;;;;;;5083689;28;20036;-70
2024/03/18 12:58:21;;;;;;;2.55;0.68;;;11.40;51.80;;;;;;5066776;28;20151;-70
2024/03/18 13:00:46;;;;;;;0.82;0.55;;;11.30;52.60;;;;;;5082998;28;20069;-70